sensor_id;sensor_type;location;lat;lon;timestamp;P1;durP1;ratioP1;P2;durP2;ratioP2
67516;SDS011;68821;59.134;37.894;2023-07-09T00:01:23;11.15;;;3.90;;
67516;SDS011;68821;59.134;37.894;2023-07-09T00:03:50;40.85;;;12.80;;
67516;SDS011;68821;59.134;37.894;2023-07-09T00:06:19;43.47;;;13.75;;
67516;SDS011;68821;59.134;37.894;2023-07-09T00:08:46;44.75;;;13.35;;
67516;SDS011;68821;59.134;37.894;2023-07-09T00:11:14;59.33;;;15.00;;
67516;SDS011;68821;59.134;37.894;2023-07-09T00:13:41;47.78;;;13.82;;
67516;SDS011;68821;59.134;37.894;2023-07-09T00:16:19;21.83;;;6.07;;
67516;SDS011;68821;59.134;37.894;2023-07-09T00:18:48;14.00;;;4.53;;
67516;SDS011;68821;59.134;37.894;2023-07-09T00:21:19;12.52;;;4.13;;
67516;SDS011;68821;59.134;37.894;2023-07-09T00:23:46;11.60;;;4.18;;
67516;SDS011;68821;59.134;37.894;2023-07-09T00:26:16;9.50;;;3.47;;
67516;SDS011;68821;59.134;37.894;2023-07-09T00:28:43;12.70;;;3.53;;
67516;SDS011;68821;59.134;37.894;2023-07-09T00:31:14;8.30;;;3.90;;
67516;SDS011;68821;59.134;37.894;2023-07-09T00:33:42;11.23;;;4.30;;
67516;SDS011;68821;59.134;37.894;2023-07-09T00:36:16;14.35;;;4.28;;
67516;SDS011;68821;59.134;37.894;2023-07-09T00:38:48;13.52;;;4.35;;
67516;SDS011;68821;59.134;37.894;2023-07-09T00:41:15;8.93;;;3.97;;
67516;SDS011;68821;59.134;37.894;2023-07-09T00:43:44;9.90;;;3.78;;
67516;SDS011;68821;59.134;37.894;2023-07-09T00:48:54;15.38;;;3.67;;
67516;SDS011;68821;59.134;37.894;2023-07-09T00:51:24;8.50;;;2.80;;
67516;SDS011;68821;59.134;37.894;2023-07-09T00:53:55;10.38;;;3.08;;
67516;SDS011;68821;59.134;37.894;2023-07-09T00:59:04;8.48;;;2.90;;
67516;SDS011;68821;59.134;37.894;2023-07-09T01:01:35;9.13;;;3.00;;
67516;SDS011;68821;59.134;37.894;2023-07-09T01:04:02;8.80;;;3.08;;
67516;SDS011;68821;59.134;37.894;2023-07-09T01:06:36;6.65;;;3.08;;
67516;SDS011;68821;59.134;37.894;2023-07-09T01:09:08;8.13;;;3.05;;
67516;SDS011;68821;59.134;37.894;2023-07-09T01:11:35;9.73;;;3.58;;
67516;SDS011;68821;59.134;37.894;2023-07-09T01:14:04;8.30;;;3.10;;
67516;SDS011;68821;59.134;37.894;2023-07-09T01:16:39;8.93;;;3.42;;
67516;SDS011;68821;59.134;37.894;2023-07-09T01:19:12;8.73;;;3.80;;
67516;SDS011;68821;59.134;37.894;2023-07-09T01:21:39;12.77;;;3.97;;
67516;SDS011;68821;59.134;37.894;2023-07-09T01:24:13;14.13;;;4.20;;
67516;SDS011;68821;59.134;37.894;2023-07-09T01:26:41;11.23;;;4.18;;
67516;SDS011;68821;59.134;37.894;2023-07-09T01:29:09;13.23;;;4.55;;
67516;SDS011;68821;59.134;37.894;2023-07-09T01:31:36;15.50;;;5.03;;
67516;SDS011;68821;59.134;37.894;2023-07-09T01:34:02;18.98;;;5.40;;
67516;SDS011;68821;59.134;37.894;2023-07-09T01:36:28;15.75;;;5.43;;
67516;SDS011;68821;59.134;37.894;2023-07-09T01:38:55;18.88;;;6.03;;
67516;SDS011;68821;59.134;37.894;2023-07-09T01:43:48;21.17;;;5.22;;
67516;SDS011;68821;59.134;37.894;2023-07-09T01:46:14;19.70;;;6.10;;
67516;SDS011;68821;59.134;37.894;2023-07-09T01:48:40;20.33;;;7.05;;
67516;SDS011;68821;59.134;37.894;2023-07-09T01:51:07;26.20;;;6.63;;
67516;SDS011;68821;59.134;37.894;2023-07-09T01:53:36;23.23;;;7.05;;
67516;SDS011;68821;59.134;37.894;2023-07-09T01:56:05;24.77;;;8.10;;
67516;SDS011;68821;59.134;37.894;2023-07-09T01:58:33;29.73;;;8.98;;
67516;SDS011;68821;59.134;37.894;2023-07-09T02:01:00;20.50;;;7.70;;
67516;SDS011;68821;59.134;37.894;2023-07-09T02:03:26;19.05;;;6.07;;
67516;SDS011;68821;59.134;37.894;2023-07-09T02:05:53;16.30;;;5.47;;
67516;SDS011;68821;59.134;37.894;2023-07-09T02:10:49;17.67;;;4.57;;
67516;SDS011;68821;59.134;37.894;2023-07-09T02:13:16;18.77;;;5.00;;
67516;SDS011;68821;59.134;37.894;2023-07-09T02:15:42;19.65;;;5.38;;
67516;SDS011;68821;59.134;37.894;2023-07-09T02:18:10;64.18;;;14.15;;
67516;SDS011;68821;59.134;37.894;2023-07-09T02:20:37;47.10;;;14.57;;
67516;SDS011;68821;59.134;37.894;2023-07-09T02:23:04;51.85;;;14.60;;
67516;SDS011;68821;59.134;37.894;2023-07-09T02:25:31;61.95;;;17.73;;
67516;SDS011;68821;59.134;37.894;2023-07-09T02:27:57;69.55;;;21.48;;
67516;SDS011;68821;59.134;37.894;2023-07-09T02:30:23;63.08;;;20.02;;
67516;SDS011;68821;59.134;37.894;2023-07-09T02:32:50;80.55;;;24.23;;
67516;SDS011;68821;59.134;37.894;2023-07-09T02:35:16;60.22;;;18.45;;
67516;SDS011;68821;59.134;37.894;2023-07-09T02:37:42;82.85;;;21.73;;
67516;SDS011;68821;59.134;37.894;2023-07-09T02:40:08;79.95;;;22.85;;
67516;SDS011;68821;59.134;37.894;2023-07-09T02:42:35;83.45;;;23.05;;
67516;SDS011;68821;59.134;37.894;2023-07-09T02:45:02;61.40;;;19.30;;
67516;SDS011;68821;59.134;37.894;2023-07-09T02:49:54;57.83;;;17.40;;
67516;SDS011;68821;59.134;37.894;2023-07-09T02:52:21;58.28;;;18.63;;
67516;SDS011;68821;59.134;37.894;2023-07-09T02:54:47;51.33;;;16.38;;
67516;SDS011;68821;59.134;37.894;2023-07-09T02:57:13;58.25;;;18.05;;
67516;SDS011;68821;59.134;37.894;2023-07-09T02:59:39;68.40;;;20.73;;
67516;SDS011;68821;59.134;37.894;2023-07-09T03:02:06;59.92;;;18.25;;
67516;SDS011;68821;59.134;37.894;2023-07-09T03:04:32;53.53;;;16.92;;
67516;SDS011;68821;59.134;37.894;2023-07-09T03:06:58;50.60;;;16.20;;
67516;SDS011;68821;59.134;37.894;2023-07-09T03:09:28;61.40;;;16.85;;
67516;SDS011;68821;59.134;37.894;2023-07-09T03:14:21;80.72;;;24.00;;
67516;SDS011;68821;59.134;37.894;2023-07-09T03:16:48;91.22;;;27.33;;
67516;SDS011;68821;59.134;37.894;2023-07-09T03:19:14;93.18;;;25.60;;
67516;SDS011;68821;59.134;37.894;2023-07-09T03:21:40;41.25;;;13.07;;
67516;SDS011;68821;59.134;37.894;2023-07-09T03:24:06;42.47;;;13.38;;
67516;SDS011;68821;59.134;37.894;2023-07-09T03:26:34;31.98;;;10.77;;
67516;SDS011;68821;59.134;37.894;2023-07-09T03:29:00;25.55;;;8.60;;
67516;SDS011;68821;59.134;37.894;2023-07-09T03:31:27;21.35;;;7.57;;
67516;SDS011;68821;59.134;37.894;2023-07-09T03:33:53;20.70;;;6.75;;
67516;SDS011;68821;59.134;37.894;2023-07-09T03:36:19;18.48;;;6.43;;
67516;SDS011;68821;59.134;37.894;2023-07-09T03:38:46;23.08;;;5.63;;
67516;SDS011;68821;59.134;37.894;2023-07-09T03:41:13;19.60;;;5.70;;
67516;SDS011;68821;59.134;37.894;2023-07-09T03:43:39;23.80;;;7.10;;
67516;SDS011;68821;59.134;37.894;2023-07-09T03:46:06;19.08;;;6.78;;
67516;SDS011;68821;59.134;37.894;2023-07-09T03:48:32;21.45;;;6.32;;
67516;SDS011;68821;59.134;37.894;2023-07-09T03:50:58;19.35;;;6.85;;
67516;SDS011;68821;59.134;37.894;2023-07-09T03:53:24;23.73;;;7.68;;
67516;SDS011;68821;59.134;37.894;2023-07-09T03:55:51;57.30;;;18.95;;
67516;SDS011;68821;59.134;37.894;2023-07-09T03:58:19;90.88;;;43.05;;
67516;SDS011;68821;59.134;37.894;2023-07-09T04:00:45;84.95;;;32.88;;
67516;SDS011;68821;59.134;37.894;2023-07-09T04:03:12;60.90;;;24.42;;
67516;SDS011;68821;59.134;37.894;2023-07-09T04:05:38;54.35;;;21.95;;
67516;SDS011;68821;59.134;37.894;2023-07-09T04:08:04;52.60;;;18.35;;
67516;SDS011;68821;59.134;37.894;2023-07-09T04:10:31;49.55;;;17.65;;
67516;SDS011;68821;59.134;37.894;2023-07-09T04:12:57;66.43;;;24.55;;
67516;SDS011;68821;59.134;37.894;2023-07-09T04:15:24;64.63;;;21.27;;
67516;SDS011;68821;59.134;37.894;2023-07-09T04:17:50;60.13;;;20.08;;
67516;SDS011;68821;59.134;37.894;2023-07-09T04:20:17;80.80;;;26.73;;
67516;SDS011;68821;59.134;37.894;2023-07-09T04:22:44;93.15;;;30.70;;
67516;SDS011;68821;59.134;37.894;2023-07-09T04:25:11;91.65;;;31.50;;
67516;SDS011;68821;59.134;37.894;2023-07-09T04:27:37;123.97;;;40.55;;
67516;SDS011;68821;59.134;37.894;2023-07-09T04:30:09;104.47;;;36.38;;
67516;SDS011;68821;59.134;37.894;2023-07-09T04:32:37;95.45;;;35.17;;
67516;SDS011;68821;59.134;37.894;2023-07-09T04:35:03;99.15;;;34.65;;
67516;SDS011;68821;59.134;37.894;2023-07-09T04:37:33;106.35;;;33.67;;
67516;SDS011;68821;59.134;37.894;2023-07-09T04:40:00;96.80;;;28.58;;
67516;SDS011;68821;59.134;37.894;2023-07-09T04:42:28;89.72;;;27.98;;
67516;SDS011;68821;59.134;37.894;2023-07-09T04:44:54;78.00;;;24.15;;
67516;SDS011;68821;59.134;37.894;2023-07-09T04:47:20;76.35;;;23.75;;
67516;SDS011;68821;59.134;37.894;2023-07-09T04:49:46;84.28;;;25.77;;
67516;SDS011;68821;59.134;37.894;2023-07-09T04:52:13;78.30;;;24.33;;
67516;SDS011;68821;59.134;37.894;2023-07-09T04:54:40;61.90;;;17.80;;
67516;SDS011;68821;59.134;37.894;2023-07-09T04:57:10;48.80;;;15.48;;
67516;SDS011;68821;59.134;37.894;2023-07-09T04:59:37;47.88;;;16.10;;
67516;SDS011;68821;59.134;37.894;2023-07-09T05:02:03;55.03;;;18.40;;
67516;SDS011;68821;59.134;37.894;2023-07-09T05:06:57;33.58;;;10.98;;
67516;SDS011;68821;59.134;37.894;2023-07-09T05:09:24;20.25;;;6.05;;
67516;SDS011;68821;59.134;37.894;2023-07-09T05:11:50;20.58;;;5.72;;
67516;SDS011;68821;59.134;37.894;2023-07-09T05:16:44;17.60;;;4.93;;
67516;SDS011;68821;59.134;37.894;2023-07-09T05:19:11;14.23;;;5.13;;
67516;SDS011;68821;59.134;37.894;2023-07-09T05:21:38;15.00;;;6.35;;
67516;SDS011;68821;59.134;37.894;2023-07-09T05:24:04;28.60;;;8.90;;
67516;SDS011;68821;59.134;37.894;2023-07-09T05:26:31;38.72;;;12.13;;
67516;SDS011;68821;59.134;37.894;2023-07-09T05:28:57;23.77;;;9.90;;
67516;SDS011;68821;59.134;37.894;2023-07-09T05:31:24;25.17;;;9.02;;
67516;SDS011;68821;59.134;37.894;2023-07-09T05:33:50;30.42;;;10.20;;
67516;SDS011;68821;59.134;37.894;2023-07-09T05:36:16;26.65;;;8.95;;
67516;SDS011;68821;59.134;37.894;2023-07-09T05:38:45;31.25;;;9.15;;
67516;SDS011;68821;59.134;37.894;2023-07-09T05:41:14;21.48;;;7.63;;
67516;SDS011;68821;59.134;37.894;2023-07-09T05:43:42;16.10;;;6.47;;
67516;SDS011;68821;59.134;37.894;2023-07-09T05:46:13;19.13;;;6.60;;
67516;SDS011;68821;59.134;37.894;2023-07-09T05:48:40;35.60;;;8.57;;
67516;SDS011;68821;59.134;37.894;2023-07-09T05:51:06;26.35;;;7.10;;
67516;SDS011;68821;59.134;37.894;2023-07-09T05:53:32;28.67;;;7.65;;
67516;SDS011;68821;59.134;37.894;2023-07-09T05:55:59;27.20;;;9.02;;
67516;SDS011;68821;59.134;37.894;2023-07-09T05:58:25;26.88;;;8.02;;
67516;SDS011;68821;59.134;37.894;2023-07-09T06:00:52;24.45;;;7.43;;
67516;SDS011;68821;59.134;37.894;2023-07-09T06:03:20;23.13;;;6.57;;
67516;SDS011;68821;59.134;37.894;2023-07-09T06:05:47;14.25;;;5.75;;
67516;SDS011;68821;59.134;37.894;2023-07-09T06:08:17;14.23;;;7.13;;
67516;SDS011;68821;59.134;37.894;2023-07-09T06:10:54;12.32;;;5.03;;
67516;SDS011;68821;59.134;37.894;2023-07-09T06:13:22;16.35;;;7.63;;
67516;SDS011;68821;59.134;37.894;2023-07-09T06:15:50;16.20;;;9.13;;
67516;SDS011;68821;59.134;37.894;2023-07-09T06:18:18;11.02;;;6.32;;
67516;SDS011;68821;59.134;37.894;2023-07-09T06:20:47;14.77;;;7.32;;
67516;SDS011;68821;59.134;37.894;2023-07-09T06:23:15;31.50;;;16.83;;
67516;SDS011;68821;59.134;37.894;2023-07-09T06:25:42;25.63;;;14.48;;
67516;SDS011;68821;59.134;37.894;2023-07-09T06:28:09;18.35;;;11.30;;
67516;SDS011;68821;59.134;37.894;2023-07-09T06:30:36;17.85;;;8.90;;
67516;SDS011;68821;59.134;37.894;2023-07-09T06:33:02;14.85;;;6.47;;
67516;SDS011;68821;59.134;37.894;2023-07-09T06:35:28;15.00;;;6.22;;
67516;SDS011;68821;59.134;37.894;2023-07-09T06:37:55;13.40;;;6.47;;
67516;SDS011;68821;59.134;37.894;2023-07-09T06:40:21;15.90;;;7.00;;
67516;SDS011;68821;59.134;37.894;2023-07-09T06:42:48;29.10;;;12.38;;
67516;SDS011;68821;59.134;37.894;2023-07-09T06:45:15;35.25;;;11.43;;
67516;SDS011;68821;59.134;37.894;2023-07-09T06:47:41;38.45;;;15.07;;
67516;SDS011;68821;59.134;37.894;2023-07-09T06:50:07;33.58;;;12.30;;
67516;SDS011;68821;59.134;37.894;2023-07-09T06:52:33;28.58;;;11.52;;
67516;SDS011;68821;59.134;37.894;2023-07-09T06:55:00;27.38;;;10.80;;
67516;SDS011;68821;59.134;37.894;2023-07-09T06:57:26;44.13;;;15.52;;
67516;SDS011;68821;59.134;37.894;2023-07-09T06:59:52;40.20;;;17.23;;
67516;SDS011;68821;59.134;37.894;2023-07-09T07:02:18;49.22;;;18.15;;
67516;SDS011;68821;59.134;37.894;2023-07-09T07:04:44;28.33;;;13.13;;
67516;SDS011;68821;59.134;37.894;2023-07-09T07:07:11;32.50;;;12.80;;
67516;SDS011;68821;59.134;37.894;2023-07-09T07:09:37;30.42;;;11.98;;
67516;SDS011;68821;59.134;37.894;2023-07-09T07:12:03;30.38;;;12.43;;
67516;SDS011;68821;59.134;37.894;2023-07-09T07:14:32;37.05;;;15.95;;
67516;SDS011;68821;59.134;37.894;2023-07-09T07:16:59;36.60;;;16.95;;
67516;SDS011;68821;59.134;37.894;2023-07-09T07:19:26;34.35;;;13.82;;
67516;SDS011;68821;59.134;37.894;2023-07-09T07:21:52;12.32;;;4.35;;
67516;SDS011;68821;59.134;37.894;2023-07-09T07:24:18;16.45;;;6.32;;
67516;SDS011;68821;59.134;37.894;2023-07-09T07:26:45;24.83;;;6.85;;
67516;SDS011;68821;59.134;37.894;2023-07-09T07:29:11;22.55;;;6.72;;
67516;SDS011;68821;59.134;37.894;2023-07-09T07:31:37;12.80;;;4.65;;
67516;SDS011;68821;59.134;37.894;2023-07-09T07:34:04;9.35;;;3.72;;
67516;SDS011;68821;59.134;37.894;2023-07-09T07:36:30;13.80;;;3.92;;
67516;SDS011;68821;59.134;37.894;2023-07-09T07:41:23;4.93;;;2.42;;
67516;SDS011;68821;59.134;37.894;2023-07-09T07:43:49;6.65;;;3.03;;
67516;SDS011;68821;59.134;37.894;2023-07-09T07:46:15;11.82;;;4.30;;
67516;SDS011;68821;59.134;37.894;2023-07-09T07:48:42;11.73;;;3.72;;
67516;SDS011;68821;59.134;37.894;2023-07-09T07:51:08;7.15;;;2.40;;
67516;SDS011;68821;59.134;37.894;2023-07-09T07:53:34;6.15;;;2.60;;
67516;SDS011;68821;59.134;37.894;2023-07-09T07:56:00;7.15;;;3.00;;
67516;SDS011;68821;59.134;37.894;2023-07-09T07:58:28;14.57;;;4.50;;
67516;SDS011;68821;59.134;37.894;2023-07-09T08:00:56;9.73;;;2.88;;
67516;SDS011;68821;59.134;37.894;2023-07-09T08:03:23;4.88;;;2.10;;
67516;SDS011;68821;59.134;37.894;2023-07-09T08:05:50;25.70;;;10.30;;
67516;SDS011;68821;59.134;37.894;2023-07-09T08:08:18;6.53;;;2.65;;
67516;SDS011;68821;59.134;37.894;2023-07-09T08:10:44;6.40;;;2.72;;
67516;SDS011;68821;59.134;37.894;2023-07-09T08:13:11;10.40;;;5.05;;
67516;SDS011;68821;59.134;37.894;2023-07-09T08:15:37;19.63;;;7.55;;
67516;SDS011;68821;59.134;37.894;2023-07-09T08:18:03;8.50;;;3.10;;
67516;SDS011;68821;59.134;37.894;2023-07-09T08:20:29;15.63;;;3.42;;
67516;SDS011;68821;59.134;37.894;2023-07-09T08:22:56;6.85;;;2.80;;
67516;SDS011;68821;59.134;37.894;2023-07-09T08:25:22;11.95;;;4.53;;
67516;SDS011;68821;59.134;37.894;2023-07-09T08:27:49;9.32;;;3.83;;
67516;SDS011;68821;59.134;37.894;2023-07-09T08:30:15;9.43;;;4.20;;
67516;SDS011;68821;59.134;37.894;2023-07-09T08:32:42;9.02;;;3.80;;
67516;SDS011;68821;59.134;37.894;2023-07-09T08:35:08;9.40;;;2.97;;
67516;SDS011;68821;59.134;37.894;2023-07-09T08:37:37;10.40;;;3.40;;
67516;SDS011;68821;59.134;37.894;2023-07-09T08:40:04;6.65;;;2.67;;
67516;SDS011;68821;59.134;37.894;2023-07-09T08:42:42;12.15;;;4.13;;
67516;SDS011;68821;59.134;37.894;2023-07-09T08:45:20;8.30;;;3.28;;
67516;SDS011;68821;59.134;37.894;2023-07-09T08:48:06;15.82;;;4.22;;
67516;SDS011;68821;59.134;37.894;2023-07-09T08:50:48;7.55;;;3.08;;
67516;SDS011;68821;59.134;37.894;2023-07-09T08:53:21;16.42;;;6.63;;
67516;SDS011;68821;59.134;37.894;2023-07-09T08:55:56;20.98;;;7.40;;
67516;SDS011;68821;59.134;37.894;2023-07-09T08:58:25;13.82;;;4.97;;
67516;SDS011;68821;59.134;37.894;2023-07-09T09:00:57;13.45;;;5.35;;
67516;SDS011;68821;59.134;37.894;2023-07-09T09:03:28;14.52;;;5.65;;
67516;SDS011;68821;59.134;37.894;2023-07-09T09:06:11;8.48;;;3.40;;
67516;SDS011;68821;59.134;37.894;2023-07-09T09:08:40;5.22;;;2.20;;
67516;SDS011;68821;59.134;37.894;2023-07-09T09:11:15;9.02;;;3.03;;
67516;SDS011;68821;59.134;37.894;2023-07-09T09:13:44;10.57;;;3.58;;
67516;SDS011;68821;59.134;37.894;2023-07-09T09:16:14;11.55;;;3.55;;
67516;SDS011;68821;59.134;37.894;2023-07-09T09:19:00;5.70;;;2.42;;
67516;SDS011;68821;59.134;37.894;2023-07-09T09:21:36;6.75;;;2.50;;
67516;SDS011;68821;59.134;37.894;2023-07-09T09:27:03;17.85;;;5.72;;
67516;SDS011;68821;59.134;37.894;2023-07-09T09:29:31;19.35;;;5.93;;
67516;SDS011;68821;59.134;37.894;2023-07-09T09:31:58;8.68;;;3.53;;
67516;SDS011;68821;59.134;37.894;2023-07-09T09:34:28;12.32;;;3.85;;
67516;SDS011;68821;59.134;37.894;2023-07-09T09:36:56;10.60;;;3.20;;
67516;SDS011;68821;59.134;37.894;2023-07-09T09:39:24;6.28;;;2.42;;
67516;SDS011;68821;59.134;37.894;2023-07-09T09:41:53;9.68;;;3.65;;
67516;SDS011;68821;59.134;37.894;2023-07-09T09:44:24;14.40;;;4.70;;
67516;SDS011;68821;59.134;37.894;2023-07-09T09:46:58;5.97;;;2.60;;
67516;SDS011;68821;59.134;37.894;2023-07-09T09:49:24;5.38;;;2.05;;
67516;SDS011;68821;59.134;37.894;2023-07-09T09:51:51;7.47;;;2.90;;
67516;SDS011;68821;59.134;37.894;2023-07-09T09:54:21;13.52;;;4.30;;
67516;SDS011;68821;59.134;37.894;2023-07-09T09:56:56;9.77;;;3.22;;
67516;SDS011;68821;59.134;37.894;2023-07-09T09:59:32;9.18;;;3.90;;
67516;SDS011;68821;59.134;37.894;2023-07-09T10:02:05;12.43;;;3.72;;
67516;SDS011;68821;59.134;37.894;2023-07-09T10:04:44;15.63;;;4.50;;
67516;SDS011;68821;59.134;37.894;2023-07-09T10:07:14;11.40;;;3.80;;
67516;SDS011;68821;59.134;37.894;2023-07-09T10:10:08;8.65;;;2.90;;
67516;SDS011;68821;59.134;37.894;2023-07-09T10:12:49;15.13;;;4.05;;
67516;SDS011;68821;59.134;37.894;2023-07-09T10:15:29;8.85;;;3.30;;
67516;SDS011;68821;59.134;37.894;2023-07-09T10:18:43;7.10;;;2.67;;
67516;SDS011;68821;59.134;37.894;2023-07-09T10:21:24;18.23;;;6.43;;
67516;SDS011;68821;59.134;37.894;2023-07-09T10:26:53;6.32;;;2.65;;
67516;SDS011;68821;59.134;37.894;2023-07-09T10:29:43;14.38;;;3.83;;
67516;SDS011;68821;59.134;37.894;2023-07-09T10:40:53;7.10;;;2.63;;
67516;SDS011;68821;59.134;37.894;2023-07-09T10:46:00;13.30;;;4.47;;
67516;SDS011;68821;59.134;37.894;2023-07-09T10:48:36;7.85;;;2.92;;
67516;SDS011;68821;59.134;37.894;2023-07-09T10:51:10;11.57;;;3.85;;
67516;SDS011;68821;59.134;37.894;2023-07-09T10:56:29;9.38;;;3.10;;
67516;SDS011;68821;59.134;37.894;2023-07-09T10:59:03;5.50;;;1.95;;
67516;SDS011;68821;59.134;37.894;2023-07-09T11:01:55;3.30;;;1.50;;
67516;SDS011;68821;59.134;37.894;2023-07-09T11:04:33;2.75;;;1.17;;
67516;SDS011;68821;59.134;37.894;2023-07-09T11:07:07;6.32;;;2.10;;
67516;SDS011;68821;59.134;37.894;2023-07-09T11:09:40;9.63;;;2.65;;
67516;SDS011;68821;59.134;37.894;2023-07-09T11:12:10;6.47;;;2.17;;
67516;SDS011;68821;59.134;37.894;2023-07-09T11:17:19;9.15;;;3.22;;
67516;SDS011;68821;59.134;37.894;2023-07-09T11:19:49;12.00;;;3.20;;
67516;SDS011;68821;59.134;37.894;2023-07-09T11:22:21;17.88;;;5.00;;
67516;SDS011;68821;59.134;37.894;2023-07-09T11:24:50;6.13;;;1.80;;
67516;SDS011;68821;59.134;37.894;2023-07-09T11:27:23;4.63;;;1.30;;
67516;SDS011;68821;59.134;37.894;2023-07-09T11:30:15;25.02;;;5.88;;
67516;SDS011;68821;59.134;37.894;2023-07-09T11:32:47;14.82;;;4.53;;
67516;SDS011;68821;59.134;37.894;2023-07-09T11:35:23;19.42;;;6.70;;
67516;SDS011;68821;59.134;37.894;2023-07-09T11:40:19;15.43;;;5.07;;
67516;SDS011;68821;59.134;37.894;2023-07-09T11:42:55;12.27;;;5.07;;
67516;SDS011;68821;59.134;37.894;2023-07-09T11:45:27;5.20;;;2.30;;
67516;SDS011;68821;59.134;37.894;2023-07-09T11:48:04;5.63;;;1.80;;
67516;SDS011;68821;59.134;37.894;2023-07-09T11:50:49;3.92;;;1.50;;
67516;SDS011;68821;59.134;37.894;2023-07-09T11:55:55;4.10;;;1.20;;
67516;SDS011;68821;59.134;37.894;2023-07-09T11:58:22;3.35;;;1.20;;
67516;SDS011;68821;59.134;37.894;2023-07-09T12:00:49;2.28;;;1.00;;
67516;SDS011;68821;59.134;37.894;2023-07-09T12:03:21;7.82;;;2.92;;
67516;SDS011;68821;59.134;37.894;2023-07-09T12:05:56;7.18;;;2.33;;
67516;SDS011;68821;59.134;37.894;2023-07-09T12:08:27;7.15;;;2.63;;
67516;SDS011;68821;59.134;37.894;2023-07-09T12:11:05;6.13;;;1.52;;
67516;SDS011;68821;59.134;37.894;2023-07-09T12:13:43;3.65;;;1.40;;
67516;SDS011;68821;59.134;37.894;2023-07-09T12:18:53;4.32;;;1.63;;
67516;SDS011;68821;59.134;37.894;2023-07-09T12:21:22;4.15;;;1.35;;
67516;SDS011;68821;59.134;37.894;2023-07-09T12:23:50;2.00;;;0.82;;
67516;SDS011;68821;59.134;37.894;2023-07-09T12:26:17;2.50;;;1.08;;
67516;SDS011;68821;59.134;37.894;2023-07-09T12:28:54;3.33;;;1.10;;
67516;SDS011;68821;59.134;37.894;2023-07-09T12:31:27;11.75;;;2.95;;
67516;SDS011;68821;59.134;37.894;2023-07-09T12:33:56;24.23;;;8.10;;
67516;SDS011;68821;59.134;37.894;2023-07-09T12:36:24;21.58;;;7.22;;
67516;SDS011;68821;59.134;37.894;2023-07-09T12:38:54;20.63;;;8.02;;
67516;SDS011;68821;59.134;37.894;2023-07-09T12:41:24;6.78;;;2.70;;
67516;SDS011;68821;59.134;37.894;2023-07-09T12:43:54;9.18;;;2.45;;
67516;SDS011;68821;59.134;37.894;2023-07-09T12:46:22;4.30;;;1.55;;
67516;SDS011;68821;59.134;37.894;2023-07-09T12:48:49;4.63;;;1.17;;
67516;SDS011;68821;59.134;37.894;2023-07-09T12:51:20;4.55;;;1.70;;
67516;SDS011;68821;59.134;37.894;2023-07-09T12:56:53;6.55;;;2.20;;
67516;SDS011;68821;59.134;37.894;2023-07-09T13:04:33;5.13;;;1.50;;
67516;SDS011;68821;59.134;37.894;2023-07-09T13:07:03;8.98;;;2.53;;
67516;SDS011;68821;59.134;37.894;2023-07-09T13:09:30;5.65;;;0.90;;
67516;SDS011;68821;59.134;37.894;2023-07-09T13:11:57;3.38;;;0.85;;
67516;SDS011;68821;59.134;37.894;2023-07-09T13:14:25;2.50;;;0.90;;
67516;SDS011;68821;59.134;37.894;2023-07-09T13:17:06;4.38;;;1.40;;
67516;SDS011;68821;59.134;37.894;2023-07-09T13:19:35;2.85;;;0.70;;
67516;SDS011;68821;59.134;37.894;2023-07-09T13:22:02;3.13;;;1.00;;
67516;SDS011;68821;59.134;37.894;2023-07-09T13:24:32;5.40;;;1.42;;
67516;SDS011;68821;59.134;37.894;2023-07-09T13:26:59;5.05;;;1.38;;
67516;SDS011;68821;59.134;37.894;2023-07-09T13:29:26;2.00;;;0.90;;
67516;SDS011;68821;59.134;37.894;2023-07-09T13:31:53;5.97;;;1.52;;
67516;SDS011;68821;59.134;37.894;2023-07-09T13:34:22;3.55;;;1.25;;
67516;SDS011;68821;59.134;37.894;2023-07-09T13:36:50;10.65;;;2.55;;
67516;SDS011;68821;59.134;37.894;2023-07-09T13:39:19;9.02;;;1.70;;
67516;SDS011;68821;59.134;37.894;2023-07-09T13:41:47;5.22;;;1.10;;
67516;SDS011;68821;59.134;37.894;2023-07-09T13:44:16;2.90;;;1.00;;
67516;SDS011;68821;59.134;37.894;2023-07-09T13:46:45;1.63;;;0.60;;
67516;SDS011;68821;59.134;37.894;2023-07-09T13:49:13;3.35;;;0.95;;
67516;SDS011;68821;59.134;37.894;2023-07-09T13:51:41;3.38;;;1.45;;
67516;SDS011;68821;59.134;37.894;2023-07-09T13:54:13;3.30;;;1.10;;
67516;SDS011;68821;59.134;37.894;2023-07-09T13:56:43;7.00;;;2.05;;
67516;SDS011;68821;59.134;37.894;2023-07-09T13:59:12;8.50;;;3.35;;
67516;SDS011;68821;59.134;37.894;2023-07-09T14:01:42;10.38;;;3.17;;
67516;SDS011;68821;59.134;37.894;2023-07-09T14:04:09;7.35;;;1.98;;
67516;SDS011;68821;59.134;37.894;2023-07-09T14:06:41;3.60;;;1.05;;
67516;SDS011;68821;59.134;37.894;2023-07-09T14:09:10;4.50;;;1.40;;
67516;SDS011;68821;59.134;37.894;2023-07-09T14:11:47;4.10;;;1.50;;
67516;SDS011;68821;59.134;37.894;2023-07-09T14:14:18;4.20;;;1.52;;
67516;SDS011;68821;59.134;37.894;2023-07-09T14:16:56;4.05;;;1.20;;
67516;SDS011;68821;59.134;37.894;2023-07-09T14:19:23;1.88;;;0.80;;
67516;SDS011;68821;59.134;37.894;2023-07-09T14:21:50;1.33;;;0.60;;
67516;SDS011;68821;59.134;37.894;2023-07-09T14:26:51;3.65;;;0.98;;
67516;SDS011;68821;59.134;37.894;2023-07-09T14:29:18;2.78;;;0.77;;
67516;SDS011;68821;59.134;37.894;2023-07-09T14:31:45;3.10;;;1.00;;
67516;SDS011;68821;59.134;37.894;2023-07-09T14:34:27;3.08;;;1.30;;
67516;SDS011;68821;59.134;37.894;2023-07-09T14:36:56;3.85;;;1.50;;
67516;SDS011;68821;59.134;37.894;2023-07-09T14:39:23;4.78;;;1.30;;
67516;SDS011;68821;59.134;37.894;2023-07-09T14:41:51;5.43;;;1.70;;
67516;SDS011;68821;59.134;37.894;2023-07-09T14:46:55;3.97;;;1.60;;
67516;SDS011;68821;59.134;37.894;2023-07-09T14:49:22;5.65;;;1.40;;
67516;SDS011;68821;59.134;37.894;2023-07-09T14:51:50;8.48;;;1.70;;
67516;SDS011;68821;59.134;37.894;2023-07-09T14:56:48;4.47;;;1.23;;
67516;SDS011;68821;59.134;37.894;2023-07-09T14:59:15;2.75;;;0.80;;
67516;SDS011;68821;59.134;37.894;2023-07-09T15:01:42;2.58;;;1.00;;
67516;SDS011;68821;59.134;37.894;2023-07-09T15:06:49;3.22;;;0.93;;
67516;SDS011;68821;59.134;37.894;2023-07-09T15:09:20;2.92;;;0.90;;
67516;SDS011;68821;59.134;37.894;2023-07-09T15:11:48;2.80;;;0.90;;
67516;SDS011;68821;59.134;37.894;2023-07-09T15:14:16;5.43;;;0.90;;
67516;SDS011;68821;59.134;37.894;2023-07-09T15:19:13;7.03;;;2.38;;
67516;SDS011;68821;59.134;37.894;2023-07-09T15:21:40;7.88;;;2.10;;
67516;SDS011;68821;59.134;37.894;2023-07-09T15:24:16;7.45;;;2.60;;
67516;SDS011;68821;59.134;37.894;2023-07-09T15:26:45;5.80;;;2.10;;
67516;SDS011;68821;59.134;37.894;2023-07-09T15:29:14;6.35;;;1.90;;
67516;SDS011;68821;59.134;37.894;2023-07-09T15:31:44;3.72;;;1.17;;
67516;SDS011;68821;59.134;37.894;2023-07-09T15:34:10;7.35;;;3.03;;
67516;SDS011;68821;59.134;37.894;2023-07-09T15:36:37;13.05;;;2.92;;
67516;SDS011;68821;59.134;37.894;2023-07-09T15:39:04;8.80;;;2.42;;
67516;SDS011;68821;59.134;37.894;2023-07-09T15:41:30;9.23;;;2.80;;
67516;SDS011;68821;59.134;37.894;2023-07-09T15:43:57;8.20;;;2.00;;
67516;SDS011;68821;59.134;37.894;2023-07-09T15:46:23;6.50;;;1.13;;
67516;SDS011;68821;59.134;37.894;2023-07-09T15:48:50;13.55;;;3.22;;